createdAt,value
2018-07-02T00:00:54.715Z,2.17
2018-07-02T00:03:25.395Z,2.77
2018-07-02T00:08:05.860Z,4.43
2018-07-02T00:10:36.513Z,3.47
2018-07-02T00:13:07.251Z,2.73
2018-07-02T00:15:38.163Z,6.93
2018-07-02T00:18:08.868Z,4.77
2018-07-02T00:20:39.552Z,3.10
2018-07-02T00:23:10.691Z,4.37
2018-07-02T00:25:41.894Z,5.00
2018-07-02T00:28:12.387Z,4.07
2018-07-02T00:30:43.695Z,3.80
2018-07-02T00:33:14.383Z,3.03
2018-07-02T00:35:45.479Z,3.37
2018-07-02T00:38:16.671Z,5.03
2018-07-02T00:40:47.648Z,2.87
2018-07-02T00:43:18.285Z,4.63
2018-07-02T00:45:49.968Z,5.10
2018-07-02T00:48:21.259Z,2.77
2018-07-02T00:50:52.649Z,4.43
2018-07-02T00:53:24.481Z,4.63
2018-07-02T00:55:55.790Z,4.10
2018-07-02T00:58:27.260Z,3.00
2018-07-02T01:00:58.567Z,3.80
2018-07-02T01:03:29.266Z,3.43
2018-07-02T01:06:00.592Z,3.03
2018-07-02T01:08:32.196Z,2.80
2018-07-02T01:11:03.607Z,4.23
2018-07-02T01:13:34.310Z,3.70
2018-07-02T01:16:05.831Z,6.07
2018-07-02T01:18:36.584Z,3.37
2018-07-02T01:21:10.437Z,3.93
2018-07-02T01:23:41.376Z,6.20
2018-07-02T01:26:12.935Z,3.80
2018-07-02T01:28:43.909Z,3.87
2018-07-02T01:31:15.015Z,3.67
2018-07-02T01:33:45.755Z,4.93
2018-07-02T01:36:16.440Z,5.20
2018-07-02T01:38:47.668Z,4.10
2018-07-02T01:41:18.367Z,2.43
2018-07-02T01:43:49.324Z,3.43
2018-07-02T01:46:20.436Z,3.07
2018-07-02T01:48:51.183Z,4.77
2018-07-02T01:51:22.579Z,2.50
2018-07-02T01:53:53.821Z,2.57
2018-07-02T01:56:24.984Z,3.00
2018-07-02T01:58:56.481Z,3.47
2018-07-02T02:06:15.146Z,4.83
2018-07-02T02:08:45.859Z,4.60
2018-07-02T02:11:16.643Z,4.80
2018-07-02T02:13:47.303Z,5.23
2018-07-02T02:16:18.107Z,5.27
2018-07-02T02:18:48.778Z,4.03
2018-07-02T02:21:19.482Z,6.10
2018-07-02T02:23:49.610Z,3.70
2018-07-02T02:26:20.278Z,4.47
2018-07-02T02:28:50.947Z,5.13
2018-07-02T02:31:21.656Z,4.17
2018-07-02T02:33:52.363Z,4.27
2018-07-02T02:36:23.023Z,4.50
2018-07-02T02:38:53.693Z,4.30
2018-07-02T02:41:24.483Z,6.10
2018-07-02T02:43:54.653Z,4.67
2018-07-02T02:46:25.321Z,4.00
2018-07-02T02:48:56.021Z,4.63
2018-07-02T02:51:26.690Z,4.57
2018-07-02T02:53:57.424Z,5.53
2018-07-02T02:56:28.118Z,6.20
2018-07-02T02:58:58.815Z,4.13
2018-07-02T03:01:29.524Z,5.87
2018-07-02T03:04:00.376Z,5.23
2018-07-02T03:06:31.113Z,8.80
2018-07-02T03:09:02.167Z,6.73
2018-07-02T03:11:32.981Z,5.67
2018-07-02T03:14:03.631Z,5.97
2018-07-02T03:16:34.349Z,6.30
2018-07-02T03:19:05.084Z,7.50
2018-07-02T03:21:35.784Z,6.13
2018-07-02T03:24:07.064Z,6.13
2018-07-02T03:26:37.735Z,6.90
2018-07-02T03:29:08.411Z,8.17
2018-07-02T03:31:39.128Z,7.07
2018-07-02T03:34:09.393Z,6.60
2018-07-02T03:36:40.279Z,8.50
2018-07-02T03:39:11.463Z,7.47
2018-07-02T03:41:42.271Z,9.77
2018-07-02T03:44:12.362Z,11.07
2018-07-02T03:46:43.159Z,8.17
2018-07-02T03:49:13.808Z,9.77
2018-07-02T03:51:44.530Z,8.73
2018-07-02T03:54:15.332Z,7.33
2018-07-02T03:56:46.016Z,7.50
2018-07-02T03:59:16.698Z,6.87
2018-07-02T04:01:47.383Z,7.70
2018-07-02T04:04:18.111Z,7.33
2018-07-02T04:06:48.783Z,6.77
2018-07-02T04:09:19.467Z,6.03
2018-07-02T04:11:49.619Z,6.90
2018-07-02T04:14:20.323Z,5.63
2018-07-02T04:16:50.956Z,6.00
2018-07-02T04:19:21.636Z,6.23
2018-07-02T04:21:52.308Z,9.70
2018-07-02T04:24:23.056Z,6.53
2018-07-02T04:26:54.123Z,8.33
2018-07-02T04:29:24.804Z,6.87
2018-07-02T04:31:55.432Z,8.00
2018-07-02T04:34:26.097Z,9.47
2018-07-02T04:36:56.779Z,6.23
2018-07-02T04:39:27.567Z,7.67
2018-07-02T04:41:58.216Z,8.87
2018-07-02T04:44:28.887Z,7.10
2018-07-02T04:46:59.635Z,6.50
2018-07-02T04:49:30.427Z,9.77
2018-07-02T04:52:01.104Z,6.33
2018-07-02T04:54:31.838Z,7.33
2018-07-02T04:57:02.516Z,7.60
2018-07-02T04:59:33.274Z,7.37
2018-07-02T05:02:03.991Z,8.70
2018-07-02T05:04:34.628Z,6.63
2018-07-02T05:07:05.564Z,8.03
2018-07-02T05:09:36.180Z,7.57
2018-07-02T05:12:07.020Z,10.73
2018-07-02T05:14:37.623Z,9.67
2018-07-02T05:17:08.605Z,9.67
2018-07-02T05:19:39.386Z,11.47
2018-07-02T05:22:10.338Z,6.73
2018-07-02T05:24:41.432Z,7.67
2018-07-02T05:27:12.094Z,9.80
2018-07-02T05:29:42.190Z,7.73
2018-07-02T05:32:13.572Z,11.53
2018-07-02T05:34:44.243Z,9.87
2018-07-02T05:37:14.980Z,14.03
2018-07-02T05:39:45.664Z,13.20
2018-07-02T05:42:16.311Z,8.73
2018-07-02T05:44:46.999Z,10.13
2018-07-02T05:47:18.187Z,9.77
2018-07-02T05:49:48.839Z,8.87
2018-07-02T05:52:20.148Z,9.07
2018-07-02T05:54:51.085Z,7.17
2018-07-02T05:57:21.745Z,8.10
2018-07-02T05:59:52.392Z,5.70
2018-07-02T06:02:23.199Z,6.63
2018-07-02T06:04:53.853Z,9.40
2018-07-02T06:07:24.482Z,7.37
2018-07-02T06:09:55.113Z,8.90
2018-07-02T06:12:25.750Z,7.57
2018-07-02T06:14:56.411Z,7.83
2018-07-02T06:17:27.043Z,7.00
2018-07-02T06:19:57.739Z,11.37
2018-07-02T06:22:28.433Z,9.40
2018-07-02T06:24:59.421Z,8.20
2018-07-02T06:27:30.089Z,8.20
2018-07-02T06:30:00.741Z,8.00
2018-07-02T06:32:31.419Z,7.80
2018-07-02T06:35:02.058Z,9.37
2018-07-02T06:37:32.724Z,11.67
2018-07-02T06:40:03.416Z,12.00
2018-07-02T06:42:34.091Z,9.03
2018-07-02T06:45:04.945Z,8.30
2018-07-02T06:47:35.620Z,9.73
2018-07-02T06:50:06.454Z,9.07
2018-07-02T06:52:37.123Z,8.03
2018-07-02T06:55:07.887Z,7.47
2018-07-02T06:57:37.950Z,10.03
2018-07-02T07:00:08.651Z,9.07
2018-07-02T07:02:39.295Z,8.30
2018-07-02T07:05:09.928Z,9.40
2018-07-02T07:07:40.579Z,9.87
2018-07-02T07:10:11.262Z,10.07
2018-07-02T07:12:41.960Z,10.43
2018-07-02T07:15:12.777Z,7.50
2018-07-02T07:17:43.396Z,9.30
2018-07-02T07:20:14.084Z,10.37
2018-07-02T07:22:44.165Z,9.80
2018-07-02T07:25:15.105Z,6.07
2018-07-02T07:27:45.747Z,8.10
2018-07-02T07:30:16.764Z,6.70
2018-07-02T07:32:47.408Z,9.87
2018-07-02T07:35:18.052Z,5.63
2018-07-02T07:37:48.720Z,5.40
2018-07-02T07:40:19.352Z,6.33
2018-07-02T07:42:49.992Z,6.53
2018-07-02T07:45:20.812Z,5.90
2018-07-02T07:47:51.478Z,6.23
2018-07-02T07:50:22.157Z,6.33
2018-07-02T07:52:53.020Z,5.57
2018-07-02T07:55:23.676Z,7.93
2018-07-02T07:57:54.383Z,6.90
2018-07-02T08:00:25.052Z,6.30
2018-07-02T08:02:55.720Z,8.70
2018-07-02T08:05:26.412Z,5.83
2018-07-02T08:07:57.087Z,9.50
2018-07-02T08:10:27.723Z,6.60
2018-07-02T08:12:58.390Z,5.37
2018-07-02T08:15:29.440Z,10.00
2018-07-02T08:18:00.083Z,8.40
2018-07-02T08:20:31.215Z,7.07
2018-07-02T08:23:01.912Z,4.47
2018-07-02T08:25:32.596Z,3.90
2018-07-02T08:28:03.222Z,4.47
2018-07-02T08:30:33.864Z,3.70
2018-07-02T08:33:04.592Z,3.40
2018-07-02T08:35:35.276Z,3.47
2018-07-02T08:38:05.915Z,4.93
2018-07-02T08:40:36.644Z,4.30
2018-07-02T08:43:07.307Z,4.40
2018-07-02T08:45:38.012Z,3.83
2018-07-02T08:48:08.674Z,5.17
2018-07-02T08:50:39.319Z,4.60
2018-07-02T08:53:10.005Z,5.67
2018-07-02T08:55:40.778Z,3.87
2018-07-02T08:58:11.460Z,2.60
2018-07-02T09:00:42.114Z,4.27
2018-07-02T09:03:19.254Z,4.37
2018-07-02T09:05:49.976Z,3.17
2018-07-02T09:08:20.763Z,3.33
2018-07-02T09:10:51.427Z,5.83
2018-07-02T09:13:22.075Z,3.10
2018-07-02T09:34:02.921Z,5.28
2018-07-02T09:36:34.275Z,5.25
2018-07-02T09:39:08.223Z,6.12
2018-07-02T09:41:39.434Z,3.50
2018-07-02T09:44:10.945Z,3.95
2018-07-02T09:46:42.028Z,3.85
2018-07-02T09:49:13.206Z,11.60
2018-07-02T09:51:44.363Z,4.70
2018-07-02T09:54:15.562Z,3.87
2018-07-02T09:56:47.324Z,3.62
2018-07-02T09:59:18.347Z,3.62
2018-07-02T10:01:49.525Z,3.02
2018-07-02T10:04:20.558Z,2.65
2018-07-02T10:06:51.755Z,3.62
2018-07-02T10:09:23.080Z,2.30
2018-07-02T10:11:54.343Z,3.80
2018-07-02T10:14:25.796Z,5.25
2018-07-02T10:16:57.125Z,2.47
2018-07-02T10:19:28.322Z,3.98
2018-07-02T10:21:59.667Z,4.40
2018-07-02T10:24:31.069Z,2.40
2018-07-02T10:27:02.231Z,2.40
2018-07-02T10:29:33.406Z,2.55
2018-07-02T10:32:04.622Z,3.08
2018-07-02T10:39:14.616Z,2.60
2018-07-02T10:41:45.987Z,4.37
2018-07-02T10:44:16.982Z,4.03
2018-07-02T10:46:49.374Z,3.87
2018-07-02T10:49:20.566Z,3.22
2018-07-02T10:51:51.947Z,4.12
2018-07-02T10:54:23.103Z,3.25
2018-07-02T10:56:54.354Z,3.50
2018-07-02T10:59:25.588Z,2.70
2018-07-02T11:01:56.950Z,3.15
2018-07-02T11:04:28.335Z,5.33
2018-07-02T11:06:59.800Z,2.70
2018-07-02T11:09:30.501Z,3.12
2018-07-02T11:12:01.841Z,5.60
2018-07-02T11:14:33.036Z,4.75
2018-07-02T11:17:04.122Z,7.10
2018-07-02T11:19:35.289Z,3.85
2018-07-02T11:22:06.551Z,3.77
2018-07-02T11:24:38.118Z,3.83
2018-07-02T11:27:10.171Z,4.83
2018-07-02T11:29:41.369Z,3.00
2018-07-02T11:32:12.101Z,5.03
2018-07-02T11:34:43.167Z,4.37
2018-07-02T11:37:14.481Z,4.80
2018-07-02T11:39:46.031Z,3.97
2018-07-02T11:42:17.141Z,4.45
2018-07-02T11:44:48.340Z,4.23
2018-07-02T11:47:19.384Z,2.83
2018-07-02T11:49:50.987Z,3.10
2018-07-02T11:52:22.280Z,3.57
2018-07-02T11:54:53.559Z,3.80
2018-07-02T11:57:24.918Z,4.12
2018-07-02T11:59:56.459Z,3.60
2018-07-02T12:02:27.500Z,3.30
2018-07-02T12:04:58.640Z,4.65
2018-07-02T12:07:32.337Z,4.22
2018-07-02T12:10:05.999Z,3.12
2018-07-02T12:17:28.902Z,4.10
2018-07-02T12:20:00.082Z,3.65
2018-07-02T12:22:31.099Z,3.67
2018-07-02T12:25:02.484Z,3.22
2018-07-02T12:27:33.901Z,5.28
2018-07-02T12:30:05.626Z,4.40
2018-07-02T12:32:37.020Z,5.53
2018-07-02T12:35:08.256Z,4.03
2018-07-02T12:37:40.716Z,3.80
2018-07-02T12:40:11.583Z,3.65
2018-07-02T12:42:42.584Z,5.67
2018-07-02T12:45:13.758Z,6.97
2018-07-02T12:47:44.972Z,3.08
2018-07-02T12:50:16.904Z,3.77
2018-07-02T12:52:47.929Z,3.17
2018-07-02T12:55:19.166Z,5.80
2018-07-02T12:57:50.404Z,7.37
2018-07-02T13:00:23.539Z,4.65
2018-07-02T13:02:54.844Z,3.10
2018-07-02T13:05:26.051Z,3.17
2018-07-02T13:07:57.317Z,5.53
2018-07-02T13:10:28.683Z,3.70
2018-07-02T13:13:00.040Z,4.58
2018-07-02T13:15:31.095Z,6.53
2018-07-02T13:18:02.435Z,4.87
2018-07-02T13:20:33.567Z,4.12
2018-07-02T13:23:04.812Z,6.62
2018-07-02T13:25:36.283Z,4.97
2018-07-02T13:28:07.516Z,4.70
2018-07-02T13:30:38.583Z,6.00
2018-07-02T13:33:09.814Z,6.55
2018-07-02T13:35:41.147Z,3.77
2018-07-02T13:38:12.400Z,3.92
2018-07-02T13:40:43.708Z,5.28
2018-07-02T13:43:14.797Z,5.72
2018-07-02T13:45:45.946Z,7.28
2018-07-02T13:48:20.342Z,7.62
2018-07-02T13:50:52.075Z,5.70
2018-07-02T13:53:23.429Z,5.10
2018-07-02T13:55:54.879Z,5.37
2018-07-02T13:58:26.221Z,3.50
2018-07-02T14:00:57.628Z,3.70
2018-07-02T14:03:28.818Z,4.83
2018-07-02T14:05:59.965Z,7.78
2018-07-02T14:08:31.063Z,10.32
2018-07-02T14:11:02.399Z,4.45
2018-07-02T14:13:33.804Z,3.65
2018-07-02T14:16:05.261Z,4.67
2018-07-02T14:18:36.340Z,4.95
2018-07-02T14:21:07.908Z,7.00
2018-07-02T14:23:39.367Z,5.78
2018-07-02T14:26:10.695Z,5.30
2018-07-02T14:28:42.352Z,3.98
2018-07-02T14:31:13.668Z,10.60
2018-07-02T14:33:45.103Z,6.45
2018-07-02T14:36:16.497Z,3.62
2018-07-02T14:38:47.817Z,4.30
2018-07-02T14:41:18.964Z,4.60
2018-07-02T14:43:50.463Z,4.37
2018-07-02T14:46:22.152Z,6.30
2018-07-02T14:48:53.368Z,5.28
2018-07-02T14:51:24.403Z,7.95
2018-07-02T14:53:55.740Z,5.65
2018-07-02T14:56:26.956Z,4.92
2018-07-02T14:58:58.145Z,6.22
2018-07-02T15:01:29.344Z,5.55
2018-07-02T15:04:00.723Z,7.67
2018-07-02T15:06:32.380Z,4.40
2018-07-02T15:09:04.628Z,4.92
2018-07-02T15:11:35.662Z,5.40
2018-07-02T15:14:06.765Z,5.22
2018-07-02T15:16:38.096Z,4.45
2018-07-02T15:19:09.439Z,5.65
2018-07-02T15:21:40.479Z,4.55
2018-07-02T15:24:11.888Z,4.40
2018-07-02T15:26:43.046Z,5.92
2018-07-02T15:29:14.450Z,4.42
2018-07-02T15:31:45.839Z,8.78
2018-07-02T15:34:17.232Z,5.58
2018-07-02T15:36:48.636Z,7.72
2018-07-02T15:39:19.953Z,6.75
2018-07-02T15:41:51.039Z,4.60
2018-07-02T15:44:22.327Z,6.35
2018-07-02T15:46:54.810Z,5.17
2018-07-02T15:49:25.931Z,7.62
2018-07-02T15:51:57.370Z,5.17
2018-07-02T15:54:28.492Z,5.28
2018-07-02T15:56:59.740Z,7.08
2018-07-02T15:59:31.258Z,6.53
2018-07-02T16:02:02.536Z,5.20
2018-07-02T16:04:34.220Z,5.47
2018-07-02T16:07:05.547Z,5.22
2018-07-02T16:09:36.828Z,5.12
2018-07-02T16:12:08.210Z,6.03
2018-07-02T16:14:39.523Z,3.60
2018-07-02T16:17:10.888Z,3.60
2018-07-02T16:19:41.969Z,3.62
2018-07-02T16:22:13.028Z,3.77
2018-07-02T16:24:44.179Z,4.40
2018-07-02T16:27:15.862Z,4.55
2018-07-02T16:29:47.134Z,5.75
2018-07-02T16:32:18.357Z,5.78
2018-07-02T16:34:49.521Z,6.05
2018-07-02T16:37:20.545Z,6.45
2018-07-02T16:39:52.195Z,3.50
2018-07-02T16:42:23.290Z,5.77
2018-07-02T16:44:57.883Z,4.83
2018-07-02T16:47:29.419Z,4.33
2018-07-02T16:50:01.038Z,4.15
2018-07-02T16:52:32.438Z,5.00
2018-07-02T16:55:03.619Z,4.87
2018-07-02T16:57:34.820Z,3.77
2018-07-02T17:00:07.012Z,5.25
2018-07-02T17:02:38.231Z,3.95
2018-07-02T17:05:09.584Z,4.10
2018-07-02T17:07:41.012Z,6.67
2018-07-02T17:10:12.591Z,5.37
2018-07-02T17:12:43.696Z,4.42
2018-07-02T17:15:15.108Z,3.90
2018-07-02T17:17:46.501Z,4.70
2018-07-02T17:20:17.932Z,5.97
2018-07-02T17:22:49.551Z,5.47
2018-07-02T17:25:20.649Z,5.67
2018-07-02T17:27:51.744Z,4.97
2018-07-02T17:30:22.426Z,4.73
2018-07-02T17:32:53.876Z,5.93
2018-07-02T17:35:25.280Z,4.60
2018-07-02T17:37:56.659Z,3.90
2018-07-02T17:40:27.459Z,3.95
2018-07-02T17:42:58.800Z,6.93
2018-07-02T17:45:30.163Z,5.10
2018-07-02T17:48:01.887Z,5.67
2018-07-02T17:50:32.960Z,3.70
2018-07-02T17:53:04.676Z,6.20
2018-07-02T17:55:35.900Z,4.67
2018-07-02T17:58:07.833Z,3.93
2018-07-02T18:00:39.079Z,5.77
2018-07-02T18:03:10.152Z,5.23
2018-07-02T18:05:41.722Z,4.83
2018-07-02T18:08:13.066Z,3.73
2018-07-02T18:10:44.369Z,3.40
2018-07-02T18:13:15.462Z,4.47
2018-07-02T18:15:47.127Z,3.60
2018-07-02T18:18:17.901Z,5.40
2018-07-02T18:20:49.260Z,4.50
2018-07-02T18:23:20.448Z,6.17
2018-07-02T18:25:51.552Z,3.83
2018-07-02T18:28:23.081Z,4.37
2018-07-02T18:30:54.176Z,3.93
2018-07-02T18:33:25.571Z,3.97
2018-07-02T18:35:56.769Z,4.40
2018-07-02T18:38:28.129Z,4.73
2018-07-02T18:40:59.176Z,4.20
2018-07-02T18:43:30.794Z,3.80
2018-07-02T18:46:02.089Z,6.17
2018-07-02T18:48:33.992Z,3.80
2018-07-02T18:51:05.314Z,5.60
2018-07-02T18:53:36.487Z,5.03
2018-07-02T18:56:07.577Z,5.47
2018-07-02T18:58:38.656Z,3.77
2018-07-02T19:01:10.107Z,4.73
2018-07-02T19:03:41.298Z,4.30
2018-07-02T19:06:12.699Z,4.13
2018-07-02T19:08:44.523Z,5.77
2018-07-02T19:11:15.708Z,6.30
2018-07-02T19:13:46.506Z,5.03
2018-07-02T19:16:18.265Z,7.07
2018-07-02T19:18:49.549Z,5.90
2018-07-02T19:21:21.329Z,5.83
2018-07-02T19:23:53.078Z,4.10
2018-07-02T19:26:24.735Z,6.60
2018-07-02T19:28:55.969Z,4.50
2018-07-02T19:31:27.113Z,4.37
2018-07-02T19:33:58.329Z,5.53
2018-07-02T19:36:30.067Z,5.03
2018-07-02T19:39:01.315Z,4.37
2018-07-02T19:41:32.926Z,6.87
2018-07-02T19:44:04.537Z,4.93
2018-07-02T19:46:35.681Z,3.77
2018-07-02T19:49:07.022Z,4.50
2018-07-02T19:51:38.392Z,6.13
2018-07-02T19:54:09.638Z,6.13
2018-07-02T19:56:40.832Z,6.80
2018-07-02T19:59:11.974Z,5.87
2018-07-02T20:01:43.224Z,6.67
2018-07-02T20:04:14.820Z,5.83
2018-07-02T20:06:46.085Z,4.47
2018-07-02T20:09:17.168Z,4.80
2018-07-02T20:11:48.503Z,8.83
2018-07-02T20:14:19.707Z,6.30
2018-07-02T20:16:51.399Z,6.13
2018-07-02T20:19:22.532Z,4.30
2018-07-02T20:21:53.900Z,7.03
2018-07-02T20:24:25.476Z,4.70
2018-07-02T20:26:56.933Z,4.03
2018-07-02T20:29:28.170Z,6.40
2018-07-02T20:31:59.555Z,3.67
2018-07-02T20:34:30.743Z,7.40
2018-07-02T20:37:03.192Z,5.13
2018-07-02T20:39:34.778Z,5.20
2018-07-02T20:42:06.552Z,4.27
2018-07-02T20:44:37.740Z,5.37
2018-07-02T20:47:09.403Z,7.20
2018-07-02T20:49:40.920Z,5.27
2018-07-02T20:52:12.633Z,5.87
2018-07-02T20:54:50.155Z,6.80
2018-07-02T20:57:22.570Z,5.63
2018-07-02T20:59:54.438Z,5.63
2018-07-02T21:02:26.409Z,5.10
2018-07-02T21:04:57.031Z,14.97
2018-07-02T21:07:28.130Z,7.43
2018-07-02T21:10:00.791Z,5.87
2018-07-02T21:12:32.308Z,5.10
2018-07-02T21:15:03.920Z,4.70
2018-07-02T21:17:35.255Z,7.07
2018-07-02T21:20:06.853Z,6.33
2018-07-02T21:22:38.014Z,6.87
2018-07-02T21:25:09.013Z,7.47
2018-07-02T21:27:43.743Z,7.80
2018-07-02T21:30:15.191Z,5.83
2018-07-02T21:32:46.989Z,6.50
2018-07-02T21:35:18.171Z,9.20
2018-07-02T21:37:49.491Z,7.93
2018-07-02T21:40:20.935Z,7.87
2018-07-02T21:42:52.251Z,7.97
2018-07-02T21:45:23.434Z,7.87
2018-07-02T21:47:54.529Z,6.53
2018-07-02T21:50:25.968Z,9.50
2018-07-02T21:52:57.260Z,6.00
2018-07-02T21:55:28.403Z,7.00
2018-07-02T21:58:04.004Z,6.00
2018-07-02T22:00:37.055Z,13.07
2018-07-02T22:03:09.282Z,5.90
2018-07-02T22:05:41.019Z,5.80
2018-07-02T22:08:12.792Z,9.70
2018-07-02T22:10:44.087Z,7.43
2018-07-02T22:13:15.679Z,9.20
2018-07-02T22:15:47.666Z,5.97
2018-07-02T22:18:19.444Z,7.57
2018-07-02T22:20:50.818Z,6.93
2018-07-02T22:23:22.419Z,8.27
2018-07-02T22:25:53.390Z,8.40
2018-07-02T22:28:24.926Z,5.87
2018-07-02T22:30:56.323Z,6.67
2018-07-02T22:33:27.515Z,7.50
2018-07-02T22:35:58.664Z,6.73
2018-07-02T22:38:30.108Z,6.57
2018-07-02T22:41:01.253Z,6.63
2018-07-02T22:43:33.443Z,7.90
2018-07-02T22:46:04.928Z,6.37
2018-07-02T22:48:36.025Z,6.90
2018-07-02T22:51:07.440Z,6.40
2018-07-02T22:53:38.872Z,6.90
2018-07-02T22:56:10.158Z,7.57
2018-07-02T22:58:42.081Z,6.27
2018-07-02T23:01:14.720Z,6.10
2018-07-02T23:03:46.214Z,9.13
2018-07-02T23:06:17.300Z,6.07
2018-07-02T23:08:48.664Z,6.77
2018-07-02T23:11:20.111Z,6.43
2018-07-02T23:13:51.439Z,9.43
2018-07-02T23:16:22.856Z,7.10
2018-07-02T23:18:54.056Z,7.70
2018-07-02T23:21:25.483Z,6.93
2018-07-02T23:23:56.835Z,7.43
2018-07-02T23:26:27.999Z,11.30
2018-07-02T23:28:59.663Z,8.73
2018-07-02T23:32:33.519Z,8.50
2018-07-02T23:35:04.903Z,7.10
2018-07-02T23:37:36.328Z,6.73
2018-07-02T23:40:07.495Z,7.70
2018-07-02T23:42:45.916Z,8.53
2018-07-02T23:45:17.585Z,8.40
2018-07-02T23:47:49.190Z,9.13
2018-07-02T23:50:20.492Z,6.17
2018-07-02T23:52:51.985Z,8.33
2018-07-02T23:55:23.092Z,7.47
2018-07-02T23:57:54.875Z,6.90
